Dover, Tasmania

5:22 AM AEST on September 01, 2015 (GMT +1000)
Huon Valley | | Change Station
CLOSE
Current Station
Personal Weather Station
Location: Garden Island Creek, TASMANIA
Elevation: 98 ft
Nearby Weather Stations

Elev 98 ft 43.24 °S, 147.15 °E | Updated 1 minute ago

Overcast
Overcast
41.5 °F
Feels Like 42 °F
N
0.0
Wind Variable Wind from North
Gusts 0.0 mph

Today
High -- | Low -- °F
--% Chance of Precip.
Yesterday
High -- | Low -- °F
Precip. -- in
6:40 AM 5:44 PM
Waning Gibbous, 94% visible
Pressure 30.01 in
Visibility 6.2 miles
Clouds Mostly Cloudy 2900 ft
Overcast 3500 ft
Windchill 42 °F
Dew Point 41 °F
Humidity 98%
Rainfall 0.00 in
Snow Depth Not available.
UV 0 out of 12
Pollen Not available.
Air Quality Not available.
Flu Activity Not available.
METAR YMHB 311900Z AUTO 30006KT 9999 // BKN029 OVC035 08/06 Q1016
Pressure 30.01 in
Visibility 6.2 miles
Clouds Mostly Cloudy 2900 ft
Overcast 3500 ft
Windchill 42 °F
Dew Point 41 °F
Humidity 98%
Rainfall 0.00 in
Snow Depth Not available.
UV 0 out of 12
Pollen Not available.
Air Quality Not available.
Flu Activity Not available.
METAR YMHB 311900Z AUTO 30006KT 9999 // BKN029 OVC035 08/06 Q1016

10-Day Weather Forecast

×

Almanac

Astronomy

Sep. 01, 2015 Rise Set
Actual Time
Civil Twilight
Nautical Twilight
Astronomical Twilight
Moon
Length of Visible Light
Length of Day
Tomorrow will be .
, % of the Moon is Illuminated

Today's Extremes

Country Highs Country Lows

Community

WunderPhotos

Upload Photos

1,851,341 photos uploaded!

WunderBlogs® & News

Nearby

Air Quality

  Air Quality AQ Index Pollutant
Not available.

Snow Depth

Station Depth Elevation

Earthquake Activity

City Distance Mag. Time & Date
Minimum magnitude displayed is 2.5.

Coastal Water Temperatures

Place Temperature

Stations

Nearby Weather Stations

Station Location Temp. Windchill Dew Point Humidity Wind Precip. Elev Updated Type